Time;durP1;ratioP1;P1;durP2;ratioP2;P2;SDS_P1;SDS_P2;PMS_P1;PMS_P2;Temp;Humidity;BMP_temperature;BMP_pressure;BME280_temperature;BME280_humidity;BME280_pressure;Samples;Min_cycle;Max_cycle;Signal;HPM_P1;HPM_P2
2021/03/13 00:00:44;;;;;;;7.20;1.53;;;;;;;;;;5018563;28;20030;-59
2021/03/13 00:03:10;;;;;;;9.37;1.53;;;;;;;;;;5016368;28;20022;-59
2021/03/13 00:05:40;;;;;;;6.50;1.47;;;;;;;;;;5017906;28;20121;-58
2021/03/13 00:08:07;;;;;;;8.17;1.47;;;;;;;;;;5015061;28;20018;-60
2021/03/13 00:10:36;;;;;;;4.50;1.83;;;;;;;;;;5015108;28;20033;-60
2021/03/13 00:13:02;;;;;;;5.40;1.00;;;;;;;;;;5015486;28;20022;-61
2021/03/13 00:15:29;;;;;;;7.07;1.10;;;;;;;;;;5013022;28;20030;-61
2021/03/13 00:17:56;;;;;;;6.53;1.23;;;;;;;;;;5030081;28;20045;-61
2021/03/13 00:20:23;;;;;;;5.87;2.00;;;;;;;;;;5029172;28;20231;-61
2021/03/13 00:22:50;;;;;;;6.57;1.70;;;;;;;;;;5028772;28;20065;-61
2021/03/13 00:25:16;;;;;;;5.40;1.43;;;;;;;;;;5014495;28;20690;-62
2021/03/13 00:27:48;;;;;;;6.30;1.13;;;;;;;;;;5020875;28;20155;-62
2021/03/13 00:30:17;;;;;;;7.05;1.23;;;;;;;;;;5014003;28;20018;-62
2021/03/13 00:32:43;;;;;;;5.47;1.40;;;;;;;;;;5012950;28;20029;-63
2021/03/13 00:35:10;;;;;;;4.53;1.30;;;;;;;;;;5013384;28;20084;-62
2021/03/13 00:37:36;;;;;;;6.57;1.80;;;;;;;;;;5013922;28;20037;-63
2021/03/13 00:40:03;;;;;;;13.53;1.97;;;;;;;;;;5014009;28;20034;-62
2021/03/13 00:42:32;;;;;;;7.00;2.00;;;;;;;;;;5013295;28;20108;-63
2021/03/13 00:44:58;;;;;;;12.43;2.93;;;;;;;;;;5026740;28;20029;-62
2021/03/13 00:47:25;;;;;;;12.10;2.23;;;;;;;;;;5029004;28;20030;-61
2021/03/13 00:49:53;;;;;;;8.70;3.33;;;;;;;;;;5015631;28;20065;-61
2021/03/13 00:52:21;;;;;;;13.97;3.23;;;;;;;;;;5028376;28;20033;-61
2021/03/13 00:54:47;;;;;;;7.80;2.20;;;;;;;;;;5013253;28;20034;-61
2021/03/13 00:57:13;;;;;;;12.50;4.37;;;;;;;;;;5009544;28;20619;-61
2021/03/13 00:59:39;;;;;;;9.80;2.60;;;;;;;;;;5013291;28;20113;-61
2021/03/13 01:02:05;;;;;;;13.10;5.37;;;;;;;;;;5012856;28;20038;-61
2021/03/13 01:04:31;;;;;;;13.00;2.97;;;;;;;;;;5016236;28;20033;-61
2021/03/13 01:06:58;;;;;;;8.73;2.40;;;;;;;;;;5012937;28;20099;-61
2021/03/13 01:09:24;;;;;;;10.97;3.20;;;;;;;;;;5028341;28;20374;-61
2021/03/13 01:11:52;;;;;;;12.00;3.37;;;;;;;;;;5012533;28;20092;-60
2021/03/13 01:14:18;;;;;;;12.30;2.93;;;;;;;;;;5013440;28;20423;-60
2021/03/13 01:16:47;;;;;;;11.97;3.07;;;;;;;;;;5012533;28;20033;-60
2021/03/13 01:19:14;;;;;;;8.23;2.63;;;;;;;;;;5016403;28;20426;-60
2021/03/13 01:21:42;;;;;;;12.73;3.57;;;;;;;;;;5012976;28;20037;-60
2021/03/13 01:24:10;;;;;;;8.43;3.03;;;;;;;;;;5012485;28;20037;-62
2021/03/13 01:26:37;;;;;;;10.57;3.43;;;;;;;;;;5028015;28;20050;-60
2021/03/13 01:29:04;;;;;;;12.17;3.60;;;;;;;;;;5008724;28;21511;-62
2021/03/13 01:31:31;;;;;;;14.70;3.07;;;;;;;;;;5014882;28;20041;-60
2021/03/13 01:33:57;;;;;;;15.17;4.13;;;;;;;;;;5013264;28;20029;-61
2021/03/13 01:36:25;;;;;;;13.73;4.47;;;;;;;;;;5011105;28;20048;-61
2021/03/13 01:38:52;;;;;;;12.30;3.83;;;;;;;;;;5012830;28;20090;-59
2021/03/13 01:41:18;;;;;;;11.33;4.00;;;;;;;;;;5012816;28;20082;-59
2021/03/13 01:43:44;;;;;;;14.57;5.10;;;;;;;;;;5012175;28;20092;-59
2021/03/13 01:46:13;;;;;;;12.33;4.13;;;;;;;;;;5012637;28;20469;-59
2021/03/13 01:48:43;;;;;;;7.07;3.10;;;;;;;;;;5009058;28;20653;-59
2021/03/13 01:51:14;;;;;;;9.67;3.63;;;;;;;;;;5013170;28;20088;-59
2021/03/13 01:53:41;;;;;;;8.37;3.20;;;;;;;;;;5015851;28;21892;-59
2021/03/13 01:56:07;;;;;;;11.00;3.20;;;;;;;;;;5015260;28;20041;-58
2021/03/13 01:58:33;;;;;;;7.23;3.07;;;;;;;;;;5015056;28;20173;-59
2021/03/13 02:01:02;;;;;;;8.80;3.27;;;;;;;;;;5014621;28;20083;-58
2021/03/13 02:03:28;;;;;;;5.80;3.07;;;;;;;;;;5026824;28;20036;-58
2021/03/13 02:05:54;;;;;;;7.43;4.03;;;;;;;;;;5019073;28;20044;-58
2021/03/13 02:08:35;;;;;;;6.20;3.70;;;;;;;;;;5028066;28;20034;-59
2021/03/13 02:11:04;;;;;;;6.20;2.50;;;;;;;;;;5013859;28;20061;-58
2021/03/13 02:13:43;;;;;;;6.37;2.27;;;;;;;;;;5012995;28;20036;-59
2021/03/13 02:16:28;;;;;;;5.83;2.07;;;;;;;;;;5011948;28;20038;-58
2021/03/13 02:19:02;;;;;;;8.03;1.80;;;;;;;;;;5026599;28;20030;-58
2021/03/13 02:21:40;;;;;;;3.97;1.43;;;;;;;;;;5011921;28;20040;-58
2021/03/13 02:24:24;;;;;;;2.27;1.33;;;;;;;;;;5011207;28;20033;-58
2021/03/13 02:27:05;;;;;;;3.73;1.73;;;;;;;;;;5011420;28;20165;-59
2021/03/13 02:29:40;;;;;;;3.37;1.00;;;;;;;;;;5011928;28;20406;-59
2021/03/13 02:32:32;;;;;;;3.33;1.30;;;;;;;;;;5015385;28;20041;-59
2021/03/13 02:35:04;;;;;;;4.90;1.15;;;;;;;;;;5006433;28;20049;-59
2021/03/13 02:37:35;;;;;;;2.37;1.13;;;;;;;;;;5012804;28;20033;-59
2021/03/13 02:40:03;;;;;;;7.43;1.83;;;;;;;;;;5011114;28;20476;-60
2021/03/13 02:42:29;;;;;;;2.80;0.80;;;;;;;;;;5026859;28;20175;-59
2021/03/13 02:44:56;;;;;;;1.30;0.70;;;;;;;;;;5018781;28;20087;-58
2021/03/13 02:47:22;;;;;;;1.93;1.20;;;;;;;;;;5019070;28;20496;-58
2021/03/13 02:49:49;;;;;;;2.57;0.60;;;;;;;;;;5028116;28;20034;-58
2021/03/13 02:52:16;;;;;;;2.17;0.57;;;;;;;;;;5011707;28;20105;-59
2021/03/13 02:54:47;;;;;;;3.00;1.03;;;;;;;;;;5011596;28;20235;-58
2021/03/13 02:57:14;;;;;;;2.00;0.97;;;;;;;;;;5026301;28;20034;-59
2021/03/13 02:59:41;;;;;;;1.70;0.60;;;;;;;;;;5011422;28;20107;-59
2021/03/13 03:02:07;;;;;;;4.00;0.90;;;;;;;;;;5026339;28;20041;-59
2021/03/13 03:04:34;;;;;;;2.23;0.90;;;;;;;;;;5011165;28;20041;-58
2021/03/13 03:07:03;;;;;;;2.87;0.87;;;;;;;;;;5011026;28;20049;-58
2021/03/13 03:09:29;;;;;;;2.50;0.80;;;;;;;;;;5011368;28;20029;-58
2021/03/13 03:11:56;;;;;;;1.87;0.50;;;;;;;;;;5014844;28;20087;-58
2021/03/13 03:14:23;;;;;;;6.03;1.07;;;;;;;;;;5028832;28;20029;-60
2021/03/13 03:16:52;;;;;;;1.70;0.60;;;;;;;;;;5011814;28;20045;-59
2021/03/13 03:19:22;;;;;;;1.37;0.50;;;;;;;;;;5011492;28;20058;-59
2021/03/13 03:21:48;;;;;;;0.97;0.50;;;;;;;;;;5010705;28;20037;-59
2021/03/13 03:24:14;;;;;;;0.60;0.30;;;;;;;;;;5013267;28;20021;-60
2021/03/13 03:26:41;;;;;;;1.20;0.37;;;;;;;;;;5011078;28;20478;-58
2021/03/13 03:29:10;;;;;;;0.97;0.30;;;;;;;;;;5014406;28;20044;-59
2021/03/13 03:31:36;;;;;;;1.23;0.40;;;;;;;;;;5012881;28;20139;-59
2021/03/13 03:34:05;;;;;;;2.23;0.30;;;;;;;;;;5015244;28;20151;-59
2021/03/13 03:36:31;;;;;;;1.53;0.27;;;;;;;;;;5016233;28;20620;-59
2021/03/13 03:38:58;;;;;;;0.60;0.40;;;;;;;;;;5016938;28;20026;-59
2021/03/13 03:41:25;;;;;;;2.33;0.80;;;;;;;;;;5030803;28;20034;-59
2021/03/13 03:43:54;;;;;;;0.90;0.20;;;;;;;;;;5014296;28;20454;-59
2021/03/13 03:46:21;;;;;;;1.33;0.23;;;;;;;;;;5014090;28;20041;-59
2021/03/13 03:48:52;;;;;;;2.20;0.40;;;;;;;;;;5030469;28;20530;-59
2021/03/13 03:51:18;;;;;;;0.73;0.30;;;;;;;;;;5014294;28;20026;-60
2021/03/13 03:53:49;;;;;;;2.67;0.30;;;;;;;;;;5011139;28;20034;-59
2021/03/13 03:56:19;;;;;;;0.67;0.20;;;;;;;;;;5014152;28;20116;-59
2021/03/13 03:58:49;;;;;;;0.60;0.20;;;;;;;;;;5015335;28;20038;-59
2021/03/13 04:01:15;;;;;;;0.40;0.20;;;;;;;;;;5030326;28;20042;-59
2021/03/13 04:03:50;;;;;;;0.10;0.10;;;;;;;;;;5013409;28;20059;-59
2021/03/13 04:06:17;;;;;;;0.50;0.27;;;;;;;;;;5014257;28;20091;-59
2021/03/13 04:08:46;;;;;;;1.90;0.20;;;;;;;;;;5014607;28;20034;-59
2021/03/13 04:11:19;;;;;;;1.13;0.20;;;;;;;;;;5021211;28;20057;-59
2021/03/13 04:13:49;;;;;;;0.43;0.20;;;;;;;;;;5014959;28;20061;-59
2021/03/13 04:16:18;;;;;;;0.30;0.20;;;;;;;;;;5014986;28;20037;-59
2021/03/13 04:18:45;;;;;;;0.40;0.30;;;;;;;;;;5014062;28;20120;-59
2021/03/13 04:21:12;;;;;;;0.57;0.20;;;;;;;;;;5013260;28;20473;-59
2021/03/13 04:23:40;;;;;;;0.23;0.20;;;;;;;;;;5013657;28;20332;-59
2021/03/13 04:26:07;;;;;;;1.30;0.30;;;;;;;;;;5020681;28;20131;-59
2021/03/13 04:28:33;;;;;;;0.30;0.10;;;;;;;;;;5013857;28;21889;-59
2021/03/13 04:31:01;;;;;;;3.13;0.40;;;;;;;;;;5029242;28;20029;-59
2021/03/13 04:33:28;;;;;;;1.33;0.37;;;;;;;;;;5014441;28;20037;-58
2021/03/13 04:35:54;;;;;;;1.50;0.30;;;;;;;;;;5013538;28;20356;-59
2021/03/13 04:38:24;;;;;;;0.97;0.20;;;;;;;;;;5013441;28;20029;-58
2021/03/13 04:40:51;;;;;;;1.50;0.40;;;;;;;;;;5013162;28;20033;-59
2021/03/13 04:43:19;;;;;;;4.03;0.53;;;;;;;;;;5013740;28;20064;-59
2021/03/13 04:45:45;;;;;;;2.80;0.47;;;;;;;;;;5014383;28;20026;-59
2021/03/13 04:48:12;;;;;;;1.37;0.67;;;;;;;;;;5014453;28;20104;-59
2021/03/13 04:50:39;;;;;;;1.10;0.30;;;;;;;;;;5029006;28;20069;-59
2021/03/13 04:53:05;;;;;;;3.00;0.40;;;;;;;;;;5012873;28;20030;-59
2021/03/13 04:55:31;;;;;;;0.87;0.40;;;;;;;;;;5013350;28;20044;-59
2021/03/13 04:57:57;;;;;;;1.03;0.30;;;;;;;;;;5015610;28;20461;-59
2021/03/13 05:00:24;;;;;;;0.40;0.20;;;;;;;;;;5015516;28;20053;-59
2021/03/13 05:02:52;;;;;;;0.70;0.20;;;;;;;;;;5028273;28;20133;-59
2021/03/13 05:05:18;;;;;;;0.87;0.33;;;;;;;;;;5012345;28;20146;-59
2021/03/13 05:07:45;;;;;;;1.57;0.30;;;;;;;;;;5015874;28;20478;-58
2021/03/13 05:10:11;;;;;;;1.63;0.37;;;;;;;;;;5030408;28;20033;-59
2021/03/13 05:12:37;;;;;;;0.60;0.13;;;;;;;;;;5013000;28;20037;-59
2021/03/13 05:15:05;;;;;;;0.97;0.30;;;;;;;;;;5020471;28;20037;-59
2021/03/13 05:17:33;;;;;;;1.23;0.30;;;;;;;;;;5013294;28;20033;-59
2021/03/13 05:19:59;;;;;;;0.63;0.30;;;;;;;;;;5011959;28;20033;-59
2021/03/13 05:22:26;;;;;;;1.77;0.33;;;;;;;;;;5012009;28;20718;-59
2021/03/13 05:24:52;;;;;;;2.47;0.30;;;;;;;;;;5015470;28;20033;-59
2021/03/13 05:27:18;;;;;;;1.33;0.30;;;;;;;;;;5028299;28;20053;-59
2021/03/13 05:29:44;;;;;;;2.23;1.13;;;;;;;;;;5013767;28;22034;-59
2021/03/13 05:32:10;;;;;;;1.10;0.23;;;;;;;;;;5012561;28;20029;-60
2021/03/13 05:34:36;;;;;;;1.00;0.37;;;;;;;;;;5012562;28;20034;-59
2021/03/13 05:37:02;;;;;;;2.10;0.30;;;;;;;;;;5016606;28;20045;-60
2021/03/13 05:39:28;;;;;;;0.73;0.20;;;;;;;;;;5012187;28;20041;-59
2021/03/13 05:41:54;;;;;;;1.90;0.63;;;;;;;;;;5013012;28;20103;-59
2021/03/13 05:44:21;;;;;;;0.73;0.30;;;;;;;;;;5012551;28;20090;-59
2021/03/13 05:46:50;;;;;;;2.43;0.40;;;;;;;;;;5013026;28;20447;-62
2021/03/13 05:49:18;;;;;;;2.67;0.40;;;;;;;;;;5012492;28;20364;-59
2021/03/13 05:51:45;;;;;;;2.93;0.43;;;;;;;;;;5011291;28;20071;-60
2021/03/13 05:54:13;;;;;;;3.33;0.57;;;;;;;;;;5019479;28;20030;-59
2021/03/13 05:56:40;;;;;;;1.17;0.30;;;;;;;;;;5027777;28;20037;-59
2021/03/13 05:59:06;;;;;;;1.90;0.40;;;;;;;;;;5014119;28;20048;-61
2021/03/13 06:01:32;;;;;;;0.50;0.20;;;;;;;;;;5011847;28;20527;-59
2021/03/13 06:04:01;;;;;;;1.33;0.47;;;;;;;;;;5012255;28;20034;-59
2021/03/13 06:06:27;;;;;;;0.77;0.20;;;;;;;;;;5008402;28;20033;-59
2021/03/13 06:08:54;;;;;;;2.83;0.30;;;;;;;;;;5013572;28;20029;-60
2021/03/13 06:11:22;;;;;;;2.07;0.30;;;;;;;;;;5012098;28;20049;-59
2021/03/13 06:13:48;;;;;;;1.87;0.37;;;;;;;;;;5012081;28;20394;-60
2021/03/13 06:16:15;;;;;;;2.47;0.40;;;;;;;;;;5015526;28;20096;-60
2021/03/13 06:18:50;;;;;;;1.40;0.43;;;;;;;;;;5011844;28;20038;-60
2021/03/13 06:21:21;;;;;;;2.17;0.63;;;;;;;;;;5019967;28;20045;-59
2021/03/13 06:23:49;;;;;;;2.90;0.50;;;;;;;;;;5024765;28;20038;-60
2021/03/13 06:26:15;;;;;;;2.63;0.47;;;;;;;;;;5011132;28;20064;-60
2021/03/13 06:28:44;;;;;;;1.43;0.30;;;;;;;;;;5014952;28;20459;-60
2021/03/13 06:31:13;;;;;;;2.07;0.50;;;;;;;;;;5019098;28;20030;-60
2021/03/13 06:33:39;;;;;;;1.70;0.30;;;;;;;;;;5011384;28;20033;-60
2021/03/13 06:36:08;;;;;;;9.10;0.60;;;;;;;;;;5011656;28;20034;-60
2021/03/13 06:38:35;;;;;;;0.60;0.27;;;;;;;;;;5012087;28;20057;-60
2021/03/13 06:41:30;;;;;;;1.60;0.30;;;;;;;;;;5026633;28;20033;-60
2021/03/13 06:43:58;;;;;;;1.93;0.57;;;;;;;;;;5011357;28;20061;-59
2021/03/13 06:46:30;;;;;;;0.93;0.20;;;;;;;;;;5014335;28;20367;-59
2021/03/13 06:48:58;;;;;;;1.40;0.22;;;;;;;;;;5011388;28;20037;-61
2021/03/13 06:51:31;;;;;;;1.67;0.30;;;;;;;;;;5011086;28;20029;-60
2021/03/13 06:53:56;;;;;;;;;;;;;;;;;;5011518;28;20033;-60
2021/03/13 06:56:26;;;;;;;3.10;0.67;;;;;;;;;;5018374;28;20111;-59
2021/03/13 06:58:54;;;;;;;2.60;0.47;;;;;;;;;;5027579;28;20477;-60
2021/03/13 07:01:26;;;;;;;1.33;0.40;;;;;;;;;;5010251;28;20044;-60
2021/03/13 07:03:54;;;;;;;0.90;0.45;;;;;;;;;;5011928;28;20125;-60
2021/03/13 07:06:25;;;;;;;3.47;0.43;;;;;;;;;;5018171;28;20037;-60
2021/03/13 07:08:52;;;;;;;1.57;0.33;;;;;;;;;;5014178;28;20038;-59
2021/03/13 07:11:24;;;;;;;0.90;0.43;;;;;;;;;;5015032;28;20373;-60
2021/03/13 07:13:54;;;;;;;2.07;0.60;;;;;;;;;;5030695;28;20072;-61
2021/03/13 07:16:25;;;;;;;2.20;0.93;;;;;;;;;;5014809;28;20099;-60
2021/03/13 07:18:52;;;;;;;1.87;0.57;;;;;;;;;;5014039;28;21906;-60
2021/03/13 07:21:19;;;;;;;2.77;0.63;;;;;;;;;;5029615;28;20127;-60
2021/03/13 07:23:52;;;;;;;2.07;0.40;;;;;;;;;;5015452;28;20122;-59
2021/03/13 07:26:18;;;;;;;1.50;0.50;;;;;;;;;;5017240;28;20095;-59
2021/03/13 07:28:44;;;;;;;4.90;0.80;;;;;;;;;;5030246;28;20449;-60
2021/03/13 07:31:11;;;;;;;1.87;0.30;;;;;;;;;;5029655;28;20121;-59
2021/03/13 07:33:41;;;;;;;2.93;0.50;;;;;;;;;;5015926;28;20030;-59
2021/03/13 07:36:14;;;;;;;1.83;0.83;;;;;;;;;;5014160;28;20151;-59
2021/03/13 07:38:41;;;;;;;2.77;0.90;;;;;;;;;;5017552;28;20461;-60
2021/03/13 07:41:12;;;;;;;2.77;0.80;;;;;;;;;;5016995;28;20994;-59
2021/03/13 07:43:42;;;;;;;3.40;1.10;;;;;;;;;;5015070;28;20030;-61
2021/03/13 07:46:11;;;;;;;2.40;1.70;;;;;;;;;;5021238;28;20029;-60
2021/03/13 07:48:40;;;;;;;2.40;1.13;;;;;;;;;;5014308;28;20034;-57
2021/03/13 07:51:07;;;;;;;8.20;3.40;;;;;;;;;;5014848;28;20396;-61
2021/03/13 07:53:35;;;;;;;8.57;1.20;;;;;;;;;;5015717;28;20574;-61
2021/03/13 07:56:03;;;;;;;3.57;0.67;;;;;;;;;;5013885;28;20040;-60
2021/03/13 07:58:32;;;;;;;1.17;0.40;;;;;;;;;;5014950;28;20096;-60
2021/03/13 08:00:59;;;;;;;1.43;0.40;;;;;;;;;;5014589;28;20037;-61
2021/03/13 08:03:37;;;;;;;4.67;0.43;;;;;;;;;;5014336;28;20041;-60
2021/03/13 08:06:04;;;;;;;1.07;0.30;;;;;;;;;;5029313;28;20477;-60
2021/03/13 08:08:34;;;;;;;4.13;0.50;;;;;;;;;;5020982;28;20560;-60
2021/03/13 08:11:00;;;;;;;3.43;0.40;;;;;;;;;;5013154;28;20033;-62
2021/03/13 08:13:28;;;;;;;2.43;0.70;;;;;;;;;;5017285;28;20284;-61
2021/03/13 08:16:07;;;;;;;3.03;1.07;;;;;;;;;;5030283;28;20030;-62
2021/03/13 08:18:51;;;;;;;5.60;0.60;;;;;;;;;;5010346;28;20037;-62
2021/03/13 08:21:20;;;;;;;3.57;0.67;;;;;;;;;;5013655;28;20045;-62
2021/03/13 08:23:50;;;;;;;2.23;0.50;;;;;;;;;;5013357;28;20555;-62
2021/03/13 08:26:17;;;;;;;1.50;0.40;;;;;;;;;;5021213;28;20050;-63
2021/03/13 08:28:47;;;;;;;2.93;0.30;;;;;;;;;;5014854;28;20037;-63
2021/03/13 08:31:24;;;;;;;3.80;0.40;;;;;;;;;;5021389;28;20419;-63
2021/03/13 08:33:56;;;;;;;3.53;0.57;;;;;;;;;;5013776;28;20177;-62
2021/03/13 08:36:23;;;;;;;3.47;0.60;;;;;;;;;;5013789;28;20068;-62
2021/03/13 08:38:59;;;;;;;0.90;0.27;;;;;;;;;;5015115;28;20422;-63
2021/03/13 08:41:44;;;;;;;1.53;0.47;;;;;;;;;;5013436;28;20037;-64
2021/03/13 08:44:11;;;;;;;2.03;0.47;;;;;;;;;;5009962;28;20087;-63
2021/03/13 08:46:46;;;;;;;2.57;0.50;;;;;;;;;;5010019;28;20914;-63
2021/03/13 08:49:34;;;;;;;3.73;0.30;;;;;;;;;;5020573;28;20167;-63
2021/03/13 08:52:10;;;;;;;1.00;0.40;;;;;;;;;;5005956;28;20037;-64
2021/03/13 08:54:39;;;;;;;2.60;0.50;;;;;;;;;;5013415;28;20029;-64
2021/03/13 08:57:06;;;;;;;3.23;0.93;;;;;;;;;;5012265;28;20025;-65
2021/03/13 08:59:32;;;;;;;2.90;0.47;;;;;;;;;;5013211;28;20034;-63
2021/03/13 09:02:03;;;;;;;3.43;0.83;;;;;;;;;;5028923;28;20439;-63
2021/03/13 09:04:30;;;;;;;4.97;0.60;;;;;;;;;;5004252;28;20933;-63
2021/03/13 09:06:57;;;;;;;3.97;0.50;;;;;;;;;;5013681;28;20025;-63
2021/03/13 09:09:25;;;;;;;6.83;0.60;;;;;;;;;;5012846;28;20037;-63
2021/03/13 09:11:58;;;;;;;5.67;0.93;;;;;;;;;;5014293;28;20629;-63
2021/03/13 09:14:25;;;;;;;4.13;0.93;;;;;;;;;;5012337;28;20045;-64
2021/03/13 09:16:51;;;;;;;4.37;0.90;;;;;;;;;;5014830;28;20036;-63
2021/03/13 09:19:17;;;;;;;10.97;1.03;;;;;;;;;;5013487;28;20032;-62
2021/03/13 09:21:49;;;;;;;3.50;0.70;;;;;;;;;;5012435;28;20746;-62
2021/03/13 09:24:17;;;;;;;2.67;0.68;;;;;;;;;;5020231;28;20605;-62
2021/03/13 09:26:50;;;;;;;4.13;0.90;;;;;;;;;;5020358;28;20052;-61
2021/03/13 09:29:27;;;;;;;4.47;1.03;;;;;;;;;;5011781;28;20033;-61
2021/03/13 09:32:03;;;;;;;4.30;0.67;;;;;;;;;;5011564;28;20121;-61
2021/03/13 09:34:32;;;;;;;7.10;1.00;;;;;;;;;;5016236;28;20809;-60
2021/03/13 09:36:58;;;;;;;6.93;1.23;;;;;;;;;;5027697;28;20041;-60
2021/03/13 09:39:30;;;;;;;7.23;1.40;;;;;;;;;;5012433;28;20099;-60
2021/03/13 09:42:05;;;;;;;6.28;1.33;;;;;;;;;;5014642;28;20037;-60
2021/03/13 09:44:35;;;;;;;4.40;1.00;;;;;;;;;;5019983;28;20582;-61
2021/03/13 09:47:09;;;;;;;6.53;1.00;;;;;;;;;;5020497;28;20037;-59
2021/03/13 09:49:35;;;;;;;6.60;0.93;;;;;;;;;;5011437;28;20056;-60
2021/03/13 09:52:01;;;;;;;8.33;0.87;;;;;;;;;;5012202;28;20446;-59
2021/03/13 09:54:27;;;;;;;9.17;1.33;;;;;;;;;;5027563;28;20102;-59
2021/03/13 09:56:53;;;;;;;8.20;1.20;;;;;;;;;;5015010;28;20036;-59
2021/03/13 09:59:22;;;;;;;4.83;1.20;;;;;;;;;;5012407;28;20659;-59
2021/03/13 10:01:48;;;;;;;9.27;1.53;;;;;;;;;;5011418;28;20963;-59
2021/03/13 10:04:14;;;;;;;8.87;1.40;;;;;;;;;;5014257;28;20037;-59
2021/03/13 10:06:45;;;;;;;5.77;1.37;;;;;;;;;;5012259;28;20537;-59
2021/03/13 10:09:14;;;;;;;8.47;1.67;;;;;;;;;;5012212;28;20595;-59
2021/03/13 10:11:41;;;;;;;8.70;1.43;;;;;;;;;;5027141;28;20034;-60
2021/03/13 10:14:16;;;;;;;9.47;1.33;;;;;;;;;;5011973;28;20040;-60
2021/03/13 10:16:42;;;;;;;5.40;0.90;;;;;;;;;;5027760;28;20048;-59
2021/03/13 10:19:08;;;;;;;11.43;1.43;;;;;;;;;;5014810;28;20116;-60
2021/03/13 10:21:34;;;;;;;9.23;1.70;;;;;;;;;;5014007;28;20041;-60
2021/03/13 10:24:01;;;;;;;4.77;1.03;;;;;;;;;;5012071;28;20075;-59
2021/03/13 10:26:28;;;;;;;5.63;1.13;;;;;;;;;;5011087;28;20061;-59
2021/03/13 10:28:54;;;;;;;7.00;1.80;;;;;;;;;;5011392;28;20053;-59
2021/03/13 10:31:23;;;;;;;7.83;1.63;;;;;;;;;;5010848;28;20030;-59
2021/03/13 10:33:53;;;;;;;9.03;1.70;;;;;;;;;;5012882;28;20099;-60
2021/03/13 10:36:20;;;;;;;9.70;1.80;;;;;;;;;;5007883;28;20037;-60
2021/03/13 10:38:47;;;;;;;7.00;1.33;;;;;;;;;;5011802;28;20041;-60
2021/03/13 10:41:15;;;;;;;6.93;1.37;;;;;;;;;;5014675;28;20033;-61
2021/03/13 10:43:42;;;;;;;9.57;1.83;;;;;;;;;;5014674;28;20025;-60
2021/03/13 10:46:10;;;;;;;9.13;1.57;;;;;;;;;;5018679;28;20418;-62
2021/03/13 10:48:56;;;;;;;5.33;1.20;;;;;;;;;;5015232;28;20021;-61
2021/03/13 10:51:26;;;;;;;8.70;1.90;;;;;;;;;;5016069;28;20067;-61
2021/03/13 10:53:55;;;;;;;7.20;1.60;;;;;;;;;;5015730;28;20033;-61
2021/03/13 10:56:21;;;;;;;9.10;1.77;;;;;;;;;;5014525;28;20025;-60
2021/03/13 10:58:49;;;;;;;11.33;1.57;;;;;;;;;;5014875;28;20386;-60
2021/03/13 11:01:15;;;;;;;7.20;1.77;;;;;;;;;;5030642;28;20391;-60
2021/03/13 11:03:43;;;;;;;7.57;1.63;;;;;;;;;;5015531;28;20031;-61
2021/03/13 11:06:11;;;;;;;8.77;1.70;;;;;;;;;;5014584;28;20041;-61
2021/03/13 11:08:38;;;;;;;7.70;1.77;;;;;;;;;;5030725;28;20518;-61
2021/03/13 11:11:04;;;;;;;8.03;1.87;;;;;;;;;;5014881;28;20041;-61
2021/03/13 11:13:31;;;;;;;7.60;1.63;;;;;;;;;;5015242;28;20045;-62
2021/03/13 11:15:57;;;;;;;10.27;1.67;;;;;;;;;;5014604;28;20042;-62
2021/03/13 11:18:23;;;;;;;9.40;1.80;;;;;;;;;;5015465;28;20033;-62
2021/03/13 11:20:52;;;;;;;8.53;2.03;;;;;;;;;;5015312;28;20033;-60
2021/03/13 11:23:21;;;;;;;8.70;1.90;;;;;;;;;;5016455;28;20030;-60
2021/03/13 11:25:48;;;;;;;12.20;2.57;;;;;;;;;;5014992;28;20601;-62
2021/03/13 11:28:17;;;;;;;15.30;2.77;;;;;;;;;;5014370;28;20042;-61
2021/03/13 11:30:43;;;;;;;9.60;2.10;;;;;;;;;;5014499;28;20034;-61
2021/03/13 11:33:09;;;;;;;12.17;3.10;;;;;;;;;;5014745;28;20115;-60
2021/03/13 11:35:38;;;;;;;15.20;2.90;;;;;;;;;;5014166;28;20159;-61
2021/03/13 11:38:06;;;;;;;14.37;2.97;;;;;;;;;;5026626;28;20037;-63
2021/03/13 11:40:32;;;;;;;11.80;2.97;;;;;;;;;;5014539;28;20367;-62
2021/03/13 11:43:00;;;;;;;13.57;2.67;;;;;;;;;;5014213;28;20027;-62
2021/03/13 11:45:26;;;;;;;8.17;2.40;;;;;;;;;;5014075;28;20034;-62
2021/03/13 11:47:55;;;;;;;17.43;2.73;;;;;;;;;;5017468;28;20437;-62
2021/03/13 11:50:22;;;;;;;12.33;2.97;;;;;;;;;;5014130;28;20052;-62
2021/03/13 11:52:48;;;;;;;13.77;2.47;;;;;;;;;;5015085;28;20033;-62
2021/03/13 11:55:15;;;;;;;13.57;2.63;;;;;;;;;;5019835;28;20068;-62
2021/03/13 11:57:41;;;;;;;18.23;2.87;;;;;;;;;;5015189;28;20034;-62
2021/03/13 12:00:10;;;;;;;9.70;2.43;;;;;;;;;;5015307;28;20497;-62
2021/03/13 12:02:37;;;;;;;7.70;1.93;;;;;;;;;;5014307;28;20642;-60
2021/03/13 12:05:04;;;;;;;14.93;2.77;;;;;;;;;;5014600;28;20034;-60
2021/03/13 12:07:32;;;;;;;7.20;1.83;;;;;;;;;;5014097;28;20053;-61
2021/03/13 12:09:58;;;;;;;13.83;3.13;;;;;;;;;;5013594;28;20555;-61
2021/03/13 12:12:27;;;;;;;23.23;4.17;;;;;;;;;;5014407;28;20042;-61
2021/03/13 12:14:53;;;;;;;18.63;3.33;;;;;;;;;;5014288;28;20125;-61
2021/03/13 12:17:19;;;;;;;11.87;2.40;;;;;;;;;;5013175;28;20052;-62
2021/03/13 12:19:46;;;;;;;9.77;2.20;;;;;;;;;;5017462;28;20037;-62
2021/03/13 12:22:14;;;;;;;13.43;2.57;;;;;;;;;;5014376;28;20038;-61
2021/03/13 12:24:43;;;;;;;19.33;3.17;;;;;;;;;;5029291;28;20037;-61
2021/03/13 12:27:09;;;;;;;14.43;2.40;;;;;;;;;;5028959;28;20053;-61
2021/03/13 12:29:37;;;;;;;13.57;2.80;;;;;;;;;;5013679;28;20044;-62
2021/03/13 12:32:03;;;;;;;12.00;2.73;;;;;;;;;;5014132;28;20030;-62
2021/03/13 12:34:32;;;;;;;12.77;2.83;;;;;;;;;;5010608;28;20041;-63
2021/03/13 12:36:58;;;;;;;18.87;2.53;;;;;;;;;;5012986;28;20359;-61
2021/03/13 12:39:24;;;;;;;9.07;2.93;;;;;;;;;;5012897;28;20301;-61
2021/03/13 12:41:55;;;;;;;15.87;2.93;;;;;;;;;;5014172;28;20099;-62
2021/03/13 12:44:21;;;;;;;10.47;1.80;;;;;;;;;;5028540;28;20038;-62
2021/03/13 12:46:47;;;;;;;11.57;2.70;;;;;;;;;;5028752;28;20041;-62
2021/03/13 12:49:13;;;;;;;17.90;4.43;;;;;;;;;;5013158;28;20178;-62
2021/03/13 12:51:39;;;;;;;10.73;1.93;;;;;;;;;;5015350;28;20034;-62
2021/03/13 12:54:06;;;;;;;14.20;2.60;;;;;;;;;;5012757;28;20030;-62
2021/03/13 12:56:32;;;;;;;12.90;2.40;;;;;;;;;;5013671;28;20033;-63
2021/03/13 12:58:58;;;;;;;17.73;3.30;;;;;;;;;;5013451;28;20041;-62
2021/03/13 13:01:24;;;;;;;18.67;2.97;;;;;;;;;;5013107;28;20057;-62
2021/03/13 13:03:54;;;;;;;14.20;3.30;;;;;;;;;;5013087;28;20034;-60
2021/03/13 13:06:20;;;;;;;16.97;2.90;;;;;;;;;;5026373;28;20095;-61
2021/03/13 13:08:49;;;;;;;20.67;3.70;;;;;;;;;;5013551;28;20030;-62
2021/03/13 13:11:15;;;;;;;9.00;1.93;;;;;;;;;;5013259;28;20033;-64
2021/03/13 13:13:43;;;;;;;12.10;2.80;;;;;;;;;;5013277;28;20462;-63
2021/03/13 13:16:09;;;;;;;14.30;2.60;;;;;;;;;;5013938;28;20022;-62
2021/03/13 13:18:35;;;;;;;15.43;2.47;;;;;;;;;;5015976;28;20029;-61
2021/03/13 13:21:02;;;;;;;11.40;2.17;;;;;;;;;;5029083;28;20049;-60
2021/03/13 13:23:28;;;;;;;10.97;1.73;;;;;;;;;;5045440;28;22178;-61
2021/03/13 13:25:54;;;;;;;6.73;1.73;;;;;;;;;;5013240;28;20037;-60
2021/03/13 13:28:25;;;;;;;8.37;1.37;;;;;;;;;;5015227;28;20084;-60
2021/03/13 13:30:53;;;;;;;7.60;1.93;;;;;;;;;;5011891;28;20029;-61
2021/03/13 13:33:20;;;;;;;9.10;1.77;;;;;;;;;;5025623;28;20040;-60
2021/03/13 13:35:50;;;;;;;6.87;1.60;;;;;;;;;;5014578;28;20439;-60
2021/03/13 13:38:16;;;;;;;6.70;1.73;;;;;;;;;;5012760;28;20029;-62
2021/03/13 13:40:43;;;;;;;12.33;1.47;;;;;;;;;;5012830;28;20108;-61
2021/03/13 13:43:09;;;;;;;4.57;1.37;;;;;;;;;;5028868;28;20042;-61
2021/03/13 13:45:35;;;;;;;11.33;1.87;;;;;;;;;;5011849;28;20118;-61
2021/03/13 13:48:01;;;;;;;5.97;1.97;;;;;;;;;;5037697;28;20030;-62
2021/03/13 13:50:28;;;;;;;10.87;1.87;;;;;;;;;;5012137;28;20040;-61
2021/03/13 13:52:55;;;;;;;8.93;1.77;;;;;;;;;;5012545;28;20042;-62
2021/03/13 13:55:21;;;;;;;12.87;1.87;;;;;;;;;;5012558;28;20182;-62
2021/03/13 13:57:47;;;;;;;6.10;1.70;;;;;;;;;;5016031;28;20041;-62
2021/03/13 14:00:18;;;;;;;5.30;1.17;;;;;;;;;;5012363;28;20034;-63
2021/03/13 14:02:45;;;;;;;7.43;1.20;;;;;;;;;;5023841;28;20124;-62
2021/03/13 14:05:11;;;;;;;10.57;1.77;;;;;;;;;;5011438;28;20119;-66
2021/03/13 14:07:38;;;;;;;8.40;1.80;;;;;;;;;;5011746;28;20124;-63
2021/03/13 14:10:04;;;;;;;8.13;1.50;;;;;;;;;;5026604;28;20088;-63
2021/03/13 14:12:30;;;;;;;5.60;1.07;;;;;;;;;;5027618;28;20041;-63
2021/03/13 14:14:56;;;;;;;7.83;1.83;;;;;;;;;;5018646;28;20130;-63
2021/03/13 14:17:23;;;;;;;7.40;1.70;;;;;;;;;;5011409;28;20386;-64
2021/03/13 14:19:51;;;;;;;8.13;2.33;;;;;;;;;;5026924;28;20038;-62
2021/03/13 14:22:17;;;;;;;12.13;1.87;;;;;;;;;;5011330;28;20037;-64
2021/03/13 14:24:43;;;;;;;8.53;1.40;;;;;;;;;;5010934;28;20467;-63
2021/03/13 14:27:09;;;;;;;8.10;1.87;;;;;;;;;;5012142;28;20235;-63
2021/03/13 14:29:36;;;;;;;10.63;2.23;;;;;;;;;;5018787;28;20138;-64
2021/03/13 14:32:06;;;;;;;7.07;1.47;;;;;;;;;;5011862;28;20025;-63
2021/03/13 14:34:34;;;;;;;7.77;1.97;;;;;;;;;;5012687;28;20107;-62
2021/03/13 14:37:03;;;;;;;10.47;2.53;;;;;;;;;;5010519;28;20038;-63
2021/03/13 14:39:32;;;;;;;5.73;1.90;;;;;;;;;;5014191;28;20049;-62
2021/03/13 14:41:59;;;;;;;17.13;3.30;;;;;;;;;;5011363;28;20126;-62
2021/03/13 14:44:27;;;;;;;8.07;1.97;;;;;;;;;;5011818;28;20685;-63
2021/03/13 14:46:56;;;;;;;7.37;1.53;;;;;;;;;;5027212;28;20041;-63